Wawona, California
Current Conditions -  °F | °C
As of 5:15 PM on Monday 22 Dec 2014 (Local Time) from KMMH Reporting Station
Clear Clear  
Wind Chill: 39°   Ceiling: Unl
Heat Index: 43°   Visibility: 10mi
Dew Point: 32°   Wind: 7mph
Humidity: 66%   Direction: 270°W
Pressure: 30.36"   Gusts: NA
Location:  37.6076°N, 119.603°W
Report Text: KMMH 230115Z AUTO 27006KT 10SM CLR 06/M00 A3036 RMK AO1
Loading
Personal Weather Stations






























Interactive Weather Map New forecast layout! Learn more

10-Day Weather Forecast

Advertisements
Track Severe Weather on mobile